createdAt,value
2019-02-24T00:00:38.896Z,-0.26
2019-02-24T00:01:48.843Z,-0.2
2019-02-24T00:02:58.780Z,-0.18
2019-02-24T00:04:08.756Z,-0.15
2019-02-24T00:05:18.696Z,-0.2
2019-02-24T00:06:28.390Z,-0.2
2019-02-24T00:07:38.082Z,-0.24
2019-02-24T00:08:47.784Z,-0.28
2019-02-24T00:09:57.474Z,-0.28
2019-02-24T00:11:07.429Z,-0.26
2019-02-24T00:12:17.446Z,-0.28
2019-02-24T00:13:27.136Z,-0.3
2019-02-24T00:14:37.071Z,-0.38
2019-02-24T00:15:47.018Z,-0.38
2019-02-24T00:16:56.974Z,-0.45
2019-02-24T00:18:06.907Z,-0.44
2019-02-24T00:19:16.862Z,-0.36
2019-02-24T00:20:26.800Z,-0.36
2019-02-24T00:21:36.740Z,-0.31
2019-02-24T00:22:46.205Z,-0.35
2019-02-24T00:23:56.153Z,-0.33
2019-02-24T00:25:05.592Z,-0.28
2019-02-24T00:26:15.535Z,-0.28
2019-02-24T00:27:25.477Z,-0.33
2019-02-24T00:28:35.429Z,-0.24
2019-02-24T00:29:45.372Z,-0.33
2019-02-24T00:30:55.330Z,-0.35
2019-02-24T00:32:04.779Z,-0.42
2019-02-24T00:33:13.976Z,-0.41
2019-02-24T00:34:23.939Z,-0.39
2019-02-24T00:35:33.879Z,-0.45
2019-02-24T00:36:43.834Z,-0.41
2019-02-24T00:37:53.784Z,-0.51
2019-02-24T00:39:03.725Z,-0.41
2019-02-24T00:40:13.670Z,-0.48
2019-02-24T00:41:23.619Z,-0.45
2019-02-24T00:42:33.320Z,-0.53
2019-02-24T00:43:43.006Z,-0.48
2019-02-24T00:44:52.691Z,-0.46
2019-02-24T00:46:02.633Z,-0.45
2019-02-24T00:47:12.598Z,-0.44
2019-02-24T00:48:22.301Z,-0.45
2019-02-24T00:49:32.227Z,-0.36
2019-02-24T00:50:41.942Z,-0.42
2019-02-24T00:51:51.630Z,-0.3
2019-02-24T00:53:01.567Z,-0.35
2019-02-24T00:54:11.509Z,-0.24
2019-02-24T00:55:20.957Z,-0.24
2019-02-24T00:56:30.891Z,-0.2
2019-02-24T00:57:40.583Z,-0.2
2019-02-24T00:58:50.523Z,-0.18
2019-02-24T01:00:00.457Z,-0.21
2019-02-24T01:01:10.391Z,-0.15
2019-02-24T01:02:20.338Z,-0.2
2019-02-24T01:03:30.264Z,-0.24
2019-02-24T01:04:40.222Z,-0.17
2019-02-24T01:05:50.159Z,-0.3
2019-02-24T01:07:00.096Z,-0.27
2019-02-24T01:08:10.026Z,-0.28
2019-02-24T01:09:19.711Z,-0.26
2019-02-24T01:10:29.140Z,-0.3
2019-02-24T01:11:38.829Z,-0.33
2019-02-24T01:12:48.761Z,-0.36
2019-02-24T01:13:58.846Z,-0.31
2019-02-24T01:15:08.789Z,-0.24
2019-02-24T01:16:18.490Z,-0.21
2019-02-24T01:17:28.421Z,-0.38
2019-02-24T01:18:38.350Z,-0.35
2019-02-24T01:19:48.293Z,-0.27
2019-02-24T01:20:58.228Z,-0.38
2019-02-24T01:22:08.173Z,-0.39
2019-02-24T01:23:18.105Z,-0.31
2019-02-24T01:24:27.537Z,-0.38
2019-02-24T01:25:37.275Z,-0.42
2019-02-24T01:26:46.701Z,-0.44
2019-02-24T01:27:56.648Z,-0.39
2019-02-24T01:29:06.604Z,-0.42
2019-02-24T01:30:16.541Z,-0.44
2019-02-24T01:31:26.079Z,-0.42
2019-02-24T01:32:36.018Z,-0.45
2019-02-24T01:33:46.009Z,-0.45
2019-02-24T01:34:55.946Z,-0.56
2019-02-24T01:36:05.888Z,-0.59
2019-02-24T01:37:15.577Z,-0.59
2019-02-24T01:38:25.260Z,-0.59
2019-02-24T01:39:34.957Z,-0.63
2019-02-24T01:40:44.656Z,-0.75
2019-02-24T01:41:54.605Z,-0.78
2019-02-24T01:43:04.291Z,-0.89
2019-02-24T01:44:13.973Z,-0.91
2019-02-24T01:45:23.921Z,-0.91
2019-02-24T01:46:33.854Z,-0.97
2019-02-24T01:47:43.289Z,-1
2019-02-24T01:48:52.976Z,-1.01
2019-02-24T01:50:02.913Z,-0.96
2019-02-24T01:51:12.863Z,-0.99
2019-02-24T01:52:22.543Z,-1.06
2019-02-24T01:53:32.233Z,-1.12
2019-02-24T01:54:41.915Z,-1.11
2019-02-24T01:55:51.850Z,-1.12
2019-02-24T01:57:01.296Z,-1.07
2019-02-24T01:58:10.724Z,-1.09
2019-02-24T01:59:20.655Z,-0.99
2019-02-24T02:00:30.404Z,-1.03
2019-02-24T02:01:40.358Z,-1.03
2019-02-24T02:02:50.317Z,-1
2019-02-24T02:04:00.009Z,-0.91
2019-02-24T02:05:09.947Z,-0.89
2019-02-24T02:06:19.676Z,-0.87
2019-02-24T02:07:29.372Z,-0.81
2019-02-24T02:08:39.317Z,-0.87
2019-02-24T02:09:48.996Z,-0.87
2019-02-24T02:10:58.683Z,-0.77
2019-02-24T02:12:08.621Z,-0.8
2019-02-24T02:13:18.571Z,-0.8
2019-02-24T02:14:28.251Z,-0.77
2019-02-24T02:15:38.196Z,-0.82
2019-02-24T02:16:48.127Z,-0.84
2019-02-24T02:17:58.067Z,-0.85
2019-02-24T02:19:07.743Z,-0.75
2019-02-24T02:20:17.440Z,-0.74
2019-02-24T02:21:27.121Z,-0.77
2019-02-24T02:22:37.057Z,-0.8
2019-02-24T02:23:46.733Z,-0.75
2019-02-24T02:24:56.665Z,-0.69
2019-02-24T02:26:06.595Z,-0.81
2019-02-24T02:27:16.275Z,-0.78
2019-02-24T02:28:25.713Z,-0.77
2019-02-24T02:29:35.657Z,-0.78
2019-02-24T02:30:45.603Z,-0.8
2019-02-24T02:31:55.288Z,-0.81
2019-02-24T02:33:04.465Z,-0.93
2019-02-24T02:34:14.409Z,-1.01
2019-02-24T02:35:24.363Z,-1
2019-02-24T02:36:34.045Z,-1.01
2019-02-24T02:37:43.991Z,-1
2019-02-24T02:38:53.924Z,-1.12
2019-02-24T02:40:03.876Z,-1.06
2019-02-24T02:41:13.579Z,-1
2019-02-24T02:42:23.264Z,-0.97
2019-02-24T02:43:32.957Z,-1
2019-02-24T02:44:42.916Z,-1
2019-02-24T02:45:52.610Z,-1.06
2019-02-24T02:47:02.293Z,-1.01
2019-02-24T02:48:12.227Z,-0.99
2019-02-24T02:49:21.683Z,-1.01
2019-02-24T02:50:31.377Z,-0.97
2019-02-24T02:51:40.578Z,-0.89
2019-02-24T02:52:50.609Z,-0.91
2019-02-24T02:54:00.562Z,-0.84
2019-02-24T02:55:10.511Z,-0.87
2019-02-24T02:56:20.201Z,-0.93
2019-02-24T02:57:29.663Z,-1.01
2019-02-24T02:58:39.333Z,-0.96
2019-02-24T02:59:59.050Z,-1
2019-02-24T03:01:08.750Z,-1.06
2019-02-24T03:02:28.799Z,-0.96
2019-02-24T03:03:38.736Z,-0.96
2019-02-24T03:04:48.422Z,-0.99
2019-02-24T03:05:58.132Z,-1
2019-02-24T03:07:08.078Z,-0.97
2019-02-24T03:08:17.780Z,-1.03
2019-02-24T03:09:27.465Z,-1.01
2019-02-24T03:10:37.395Z,-0.96
2019-02-24T03:11:47.087Z,-0.82
2019-02-24T03:12:56.765Z,-0.96
2019-02-24T03:14:06.722Z,-0.91
2019-02-24T03:15:16.425Z,-1.01
2019-02-24T03:16:27.697Z,-1.03
2019-02-24T03:17:37.378Z,-1
2019-02-24T03:18:47.116Z,-0.99
2019-02-24T03:19:56.805Z,-0.97
2019-02-24T03:21:06.755Z,-1.06
2019-02-24T03:22:16.715Z,-0.84
2019-02-24T03:23:26.442Z,-0.85
2019-02-24T03:24:35.881Z,-0.85
2019-02-24T03:25:45.320Z,-0.82
2019-02-24T03:26:55.257Z,-0.93
2019-02-24T03:28:04.956Z,-0.93
2019-02-24T03:29:14.901Z,-0.91
2019-02-24T03:30:24.956Z,-0.97
2019-02-24T03:31:34.711Z,-0.8
2019-02-24T03:32:44.688Z,-0.77
2019-02-24T03:33:54.159Z,-0.8
2019-02-24T03:35:04.120Z,-0.63
2019-02-24T03:36:13.551Z,-0.57
2019-02-24T03:37:23.492Z,-0.63
2019-02-24T03:38:33.200Z,-0.67
2019-02-24T03:39:43.141Z,-0.69
2019-02-24T03:40:53.082Z,-0.59
2019-02-24T03:42:03.024Z,-0.63
2019-02-24T03:43:12.966Z,-0.59
2019-02-24T03:44:22.726Z,-0.57
2019-02-24T03:45:32.687Z,-0.64
2019-02-24T03:46:42.112Z,-0.67
2019-02-24T03:47:52.063Z,-0.78
2019-02-24T03:49:02.034Z,-0.78
2019-02-24T03:50:11.743Z,-0.62
2019-02-24T03:51:21.694Z,-0.6
2019-02-24T03:52:31.636Z,-0.64
2019-02-24T03:53:41.314Z,-0.63
2019-02-24T03:54:51.275Z,-0.64
2019-02-24T03:56:02.516Z,-0.64
2019-02-24T03:57:12.204Z,-0.6
2019-02-24T03:58:22.121Z,-0.66
2019-02-24T03:59:31.794Z,-0.59
2019-02-24T04:00:41.743Z,-0.63
2019-02-24T04:01:51.681Z,-0.59
2019-02-24T04:03:01.108Z,-0.6
2019-02-24T04:04:11.061Z,-0.66
2019-02-24T04:05:20.761Z,-0.57
2019-02-24T04:06:30.479Z,-0.59
2019-02-24T04:07:40.418Z,-0.62
2019-02-24T04:08:50.376Z,-0.59
2019-02-24T04:10:00.095Z,-0.48
2019-02-24T04:11:10.131Z,-0.53
2019-02-24T04:12:20.071Z,-0.51
2019-02-24T04:13:30.016Z,-0.49
2019-02-24T04:14:39.960Z,-0.48
2019-02-24T04:15:49.640Z,-0.46
2019-02-24T04:16:59.331Z,-0.45
2019-02-24T04:18:09.322Z,-0.42
2019-02-24T04:19:19.020Z,-0.46
2019-02-24T04:20:28.991Z,-0.38
2019-02-24T04:21:38.678Z,-0.31
2019-02-24T04:22:48.113Z,-0.36
2019-02-24T04:23:58.055Z,-0.44
2019-02-24T04:25:07.994Z,-0.31
2019-02-24T04:26:17.688Z,-0.33
2019-02-24T04:27:27.616Z,-0.36
2019-02-24T04:28:37.291Z,-0.3
2019-02-24T04:29:47.282Z,-0.2
2019-02-24T04:30:57.212Z,-0.18
2019-02-24T04:32:07.154Z,-0.23
2019-02-24T04:33:17.138Z,-0.24
2019-02-24T04:34:26.841Z,-0.21
2019-02-24T04:35:36.283Z,-0.2
2019-02-24T04:36:46.246Z,-0.17
2019-02-24T04:37:56.192Z,-0.24
2019-02-24T04:39:06.135Z,-0.28
2019-02-24T04:40:15.822Z,-0.38
2019-02-24T04:41:25.508Z,-0.38
2019-02-24T04:42:35.194Z,-0.39
2019-02-24T04:43:45.168Z,-0.35
2019-02-24T04:44:54.862Z,-0.41
2019-02-24T04:46:04.797Z,-0.41
2019-02-24T04:47:14.504Z,-0.39
2019-02-24T04:48:24.195Z,-0.41
2019-02-24T04:49:33.956Z,-0.53
2019-02-24T04:50:43.886Z,-0.62
2019-02-24T04:51:53.583Z,-0.53
2019-02-24T04:53:03.518Z,-0.62
2019-02-24T04:54:13.464Z,-0.6
2019-02-24T04:55:23.426Z,-0.69
2019-02-24T04:56:32.872Z,-0.74
2019-02-24T04:57:42.566Z,-0.72
2019-02-24T04:58:52.629Z,-0.69
2019-02-24T05:00:02.894Z,-0.75
2019-02-24T05:01:12.600Z,-0.82
2019-02-24T05:02:22.568Z,-0.84
2019-02-24T05:03:32.257Z,-0.84
2019-02-24T05:04:42.220Z,-0.84
2019-02-24T05:05:52.149Z,-0.87
2019-02-24T05:07:02.087Z,-0.87
2019-02-24T05:08:12.044Z,-1.06
2019-02-24T05:09:21.737Z,-1.03
2019-02-24T05:10:31.668Z,-1.06
2019-02-24T05:11:41.654Z,-1
2019-02-24T05:12:51.581Z,-1.06
2019-02-24T05:14:01.512Z,-1.09
2019-02-24T05:15:11.222Z,-1.03
2019-02-24T05:16:21.197Z,-1.11
2019-02-24T05:17:30.907Z,-1.06
2019-02-24T05:18:40.829Z,-1.04
2019-02-24T05:19:50.527Z,-1.09
2019-02-24T05:21:00.220Z,-1.09
2019-02-24T05:22:10.166Z,-1.09
2019-02-24T05:23:20.096Z,-1.07
2019-02-24T05:24:30.268Z,-1
2019-02-24T05:25:39.971Z,-1.09
2019-02-24T05:26:49.150Z,-1.09
2019-02-24T05:27:59.076Z,-1.09
2019-02-24T05:29:09.026Z,-1.09
2019-02-24T05:30:18.480Z,-1.07
2019-02-24T05:31:28.412Z,-1.12
2019-02-24T05:32:38.098Z,-1.07
2019-02-24T05:33:48.033Z,-1.06
2019-02-24T05:34:57.974Z,-1.12
2019-02-24T05:36:07.666Z,-1.19
2019-02-24T05:37:16.846Z,-1.18
2019-02-24T05:38:26.560Z,-1.22
2019-02-24T05:39:36.489Z,-1.18
2019-02-24T05:40:46.178Z,-1.19
2019-02-24T05:41:56.116Z,-1.24
2019-02-24T05:43:06.070Z,-1.25
2019-02-24T05:44:16.032Z,-1.22
2019-02-24T05:45:25.732Z,-1.32
2019-02-24T05:46:35.683Z,-1.27
2019-02-24T05:47:45.127Z,-1.27
2019-02-24T05:48:54.826Z,-1.36
2019-02-24T05:50:04.776Z,-1.38
2019-02-24T05:51:14.706Z,-1.39
2019-02-24T05:52:24.658Z,-1.33
2019-02-24T05:53:34.606Z,-1.36
2019-02-24T05:54:44.565Z,-1.45
2019-02-24T05:55:57.098Z,-1.35
2019-02-24T05:57:06.792Z,-1.38
2019-02-24T05:58:16.754Z,-1.39
2019-02-24T05:59:26.708Z,-1.35
2019-02-24T06:00:36.140Z,-1.35
2019-02-24T06:01:46.105Z,-1.32
2019-02-24T06:02:56.060Z,-1.4
2019-02-24T06:04:05.997Z,-1.35
2019-02-24T06:05:15.696Z,-1.4
2019-02-24T06:06:25.397Z,-1.39
2019-02-24T06:07:35.735Z,-1.35
2019-02-24T06:08:45.677Z,-1.33
2019-02-24T06:09:55.347Z,-1.38
2019-02-24T06:11:04.778Z,-1.3
2019-02-24T06:12:14.722Z,-1.22
2019-02-24T06:13:24.660Z,-1.29
2019-02-24T06:14:34.352Z,-1.18
2019-02-24T06:15:44.279Z,-1.22
2019-02-24T06:16:53.952Z,-1.18
2019-02-24T06:18:03.634Z,-1.15
2019-02-24T06:19:13.565Z,-1.14
2019-02-24T06:20:23.255Z,-1.19
2019-02-24T06:21:33.211Z,-1.12
2019-02-24T06:22:43.245Z,-1.04
2019-02-24T06:23:52.924Z,-1.06
2019-02-24T06:25:02.681Z,-0.99
2019-02-24T06:26:12.668Z,-1.03
2019-02-24T06:27:22.357Z,-1.01
2019-02-24T06:28:32.300Z,-0.96
2019-02-24T06:29:42.259Z,-0.94
2019-02-24T06:30:51.697Z,-1.03
2019-02-24T06:32:01.390Z,-0.93
2019-02-24T06:33:11.104Z,-0.82
2019-02-24T06:34:21.054Z,-0.85
2019-02-24T06:35:30.760Z,-0.93
2019-02-24T06:36:41.266Z,-0.87
2019-02-24T06:37:50.954Z,-0.84
2019-02-24T06:39:00.398Z,-0.85
2019-02-24T06:40:10.076Z,-0.85
2019-02-24T06:41:19.767Z,-0.77
2019-02-24T06:42:29.444Z,-0.78
2019-02-24T06:43:39.166Z,-0.69
2019-02-24T06:44:48.844Z,-0.77
2019-02-24T06:45:58.774Z,-0.78
2019-02-24T06:47:08.463Z,-0.7
2019-02-24T06:48:18.155Z,-0.67
2019-02-24T06:49:28.114Z,-0.8
2019-02-24T06:50:40.457Z,-0.78
2019-02-24T06:51:50.399Z,-0.69
2019-02-24T06:53:00.102Z,-0.78
2019-02-24T06:54:09.548Z,-0.74
2019-02-24T06:55:19.495Z,-0.74
2019-02-24T06:56:28.929Z,-0.72
2019-02-24T06:57:38.883Z,-0.74
2019-02-24T06:58:48.833Z,-0.72
2019-02-24T06:59:58.273Z,-0.64
2019-02-24T07:01:08.008Z,-0.69
2019-02-24T07:02:17.712Z,-0.64
2019-02-24T07:03:27.158Z,-0.56
2019-02-24T07:04:37.097Z,-0.69
2019-02-24T07:05:46.797Z,-0.66
2019-02-24T07:06:56.473Z,-0.63
2019-02-24T07:08:06.153Z,-0.64
2019-02-24T07:09:16.087Z,-0.63
2019-02-24T07:10:26.803Z,-0.6
2019-02-24T07:11:36.495Z,-0.63
2019-02-24T07:12:46.206Z,-0.64
2019-02-24T07:13:55.691Z,-0.6
2019-02-24T07:15:05.637Z,-0.62
2019-02-24T07:16:15.330Z,-0.62
2019-02-24T07:17:25.264Z,-0.66
2019-02-24T07:18:35.211Z,-0.63
2019-02-24T07:19:45.146Z,-0.56
2019-02-24T07:20:55.143Z,-0.53
2019-02-24T07:22:05.157Z,-0.54
2019-02-24T07:23:15.097Z,-0.48
2019-02-24T07:24:25.034Z,-0.42
2019-02-24T07:25:34.998Z,-0.41
2019-02-24T07:26:44.947Z,-0.42
2019-02-24T07:27:55.969Z,-0.46
2019-02-24T07:29:05.715Z,-0.41
2019-02-24T07:30:23.038Z,-0.38
2019-02-24T07:31:33.581Z,-0.17
2019-02-24T07:32:43.522Z,-0.17
2019-02-24T07:33:53.657Z,-0.27
2019-02-24T07:35:03.411Z,-0.2
2019-02-24T07:36:13.110Z,-0.09
2019-02-24T07:37:23.062Z,-0.12
2019-02-24T07:38:32.994Z,-0.15
2019-02-24T07:39:42.952Z,-0.07
2019-02-24T07:40:52.891Z,-0.03
2019-02-24T07:42:02.833Z,-0.05
2019-02-24T07:43:12.523Z,-0.05
2019-02-24T07:44:22.219Z,0.01
2019-02-24T07:45:31.906Z,0.06
2019-02-24T07:46:41.612Z,-0.05
2019-02-24T07:47:51.541Z,0
2019-02-24T07:49:01.228Z,0.06
2019-02-24T07:50:11.174Z,-0.02
2019-02-24T07:51:21.122Z,-0.03
2019-02-24T07:52:30.797Z,0.12
2019-02-24T07:53:40.749Z,0.09
2019-02-24T07:54:50.676Z,0.12
2019-02-24T07:56:00.110Z,0.19
2019-02-24T07:57:10.059Z,0.15
2019-02-24T07:58:19.770Z,0.13
2019-02-24T07:59:29.729Z,0.16
2019-02-24T08:00:39.164Z,0.18
2019-02-24T08:01:49.087Z,0.19
2019-02-24T08:02:58.768Z,0.27
2019-02-24T08:04:08.709Z,0.36
2019-02-24T08:05:18.145Z,0.39
2019-02-24T08:06:28.083Z,0.36
2019-02-24T08:07:38.036Z,0.36
2019-02-24T08:08:47.980Z,0.49
2019-02-24T08:09:57.409Z,0.45
2019-02-24T08:11:07.361Z,0.36
2019-02-24T08:12:17.295Z,0.34
2019-02-24T08:13:26.733Z,0.45
2019-02-24T08:14:36.673Z,0.49
2019-02-24T08:15:46.382Z,0.47
2019-02-24T08:16:56.102Z,0.48
2019-02-24T08:18:06.034Z,0.56
2019-02-24T08:19:15.966Z,0.48
2019-02-24T08:20:25.896Z,0.52
2019-02-24T08:21:35.845Z,0.59
2019-02-24T08:22:45.774Z,0.67
2019-02-24T08:23:55.709Z,0.7
2019-02-24T08:25:05.407Z,0.7
2019-02-24T08:26:15.109Z,0.86
2019-02-24T08:27:25.051Z,0.86
2019-02-24T08:28:34.759Z,0.99
2019-02-24T08:29:44.701Z,1.03
2019-02-24T08:30:54.647Z,1.03
2019-02-24T08:32:04.364Z,0.99
2019-02-24T08:33:14.618Z,1.03
2019-02-24T08:34:24.570Z,1.02
2019-02-24T08:35:34.511Z,0.96
2019-02-24T08:36:44.209Z,0.95
2019-02-24T08:37:53.888Z,1.09
2019-02-24T08:39:03.825Z,1.09
2019-02-24T08:40:13.530Z,1.14
2019-02-24T08:41:23.287Z,1.09
2019-02-24T08:42:33.233Z,1.14
2019-02-24T08:43:43.007Z,1.22
2019-02-24T08:44:52.976Z,1.28
2019-02-24T08:46:02.924Z,1.2
2019-02-24T08:47:12.875Z,1.14
2019-02-24T08:48:24.133Z,1.14
2019-02-24T08:49:34.075Z,1.16
2019-02-24T08:50:43.771Z,1.31
2019-02-24T08:51:53.712Z,1.38
2019-02-24T08:53:03.396Z,1.56
2019-02-24T08:54:13.333Z,1.88
2019-02-24T08:55:23.022Z,2.05
2019-02-24T08:56:32.957Z,2.28
2019-02-24T08:57:42.648Z,2.34
2019-02-24T08:58:52.346Z,2.64
2019-02-24T09:00:02.037Z,2.79
2019-02-24T09:01:11.987Z,2.91
2019-02-24T09:02:21.939Z,3.01
2019-02-24T09:03:31.878Z,3.55
2019-02-24T09:04:41.565Z,3.78
2019-02-24T09:05:51.557Z,3.84
2019-02-24T09:07:01.311Z,3.86
2019-02-24T09:08:11.272Z,4.07
2019-02-24T09:09:20.969Z,4.36
2019-02-24T09:10:30.919Z,4.66
2019-02-24T09:11:40.856Z,4.9
2019-02-24T09:12:50.560Z,4.98
2019-02-24T09:14:00.506Z,5.2
2019-02-24T09:15:09.699Z,5.25
2019-02-24T09:16:19.669Z,5.38
2019-02-24T09:17:29.623Z,5.52
2019-02-24T09:18:39.315Z,5.49
2019-02-24T09:19:49.020Z,5.73
2019-02-24T09:20:59.001Z,6.01
2019-02-24T09:22:08.782Z,6.29
2019-02-24T09:23:20.170Z,6.57
2019-02-24T09:24:30.168Z,6.95
2019-02-24T09:25:40.119Z,6.9
2019-02-24T09:26:49.820Z,6.57
2019-02-24T09:27:59.255Z,6.31
2019-02-24T09:29:09.207Z,6.26
2019-02-24T09:30:19.153Z,6.36
2019-02-24T09:31:28.841Z,6.29
2019-02-24T09:32:38.297Z,6.5
2019-02-24T09:33:48.244Z,6.56
2019-02-24T09:34:57.978Z,6.65
2019-02-24T09:36:07.960Z,6.41
2019-02-24T09:37:17.914Z,6.62
2019-02-24T09:38:27.899Z,6.87
2019-02-24T09:39:37.832Z,7.33
2019-02-24T09:40:47.771Z,7.47
2019-02-24T09:41:57.726Z,7.59
2019-02-24T09:43:07.440Z,7.8
2019-02-24T09:44:17.414Z,7.99
2019-02-24T09:45:27.377Z,8.11
2019-02-24T09:46:37.275Z,8.18
2019-02-24T09:47:51.257Z,8.36
2019-02-24T09:49:01.265Z,8.41
2019-02-24T09:50:10.955Z,8.36
2019-02-24T09:51:20.922Z,8.21
2019-02-24T09:52:30.883Z,8.18
2019-02-24T09:53:40.822Z,8.32
2019-02-24T09:54:50.791Z,8.39
2019-02-24T09:56:00.766Z,8.32
2019-02-24T09:57:10.497Z,8.5
2019-02-24T09:58:20.468Z,8.72
2019-02-24T09:59:30.191Z,8.95
2019-02-24T10:00:40.127Z,9.16
2019-02-24T10:01:50.072Z,9.21
2019-02-24T10:03:00.117Z,9.27
2019-02-24T10:04:10.096Z,9.16
2019-02-24T10:05:20.033Z,9.02
2019-02-24T10:06:30.001Z,8.69
2019-02-24T10:07:39.966Z,8.34
2019-02-24T10:08:49.935Z,8.14
2019-02-24T10:09:59.890Z,8.01
2019-02-24T10:11:09.609Z,7.87
2019-02-24T10:12:20.965Z,7.91
2019-02-24T10:13:30.427Z,8.09
2019-02-24T10:14:40.377Z,8.11
2019-02-24T10:15:50.335Z,8.13
2019-02-24T10:17:00.316Z,8.14
2019-02-24T10:18:10.015Z,8.41
2019-02-24T10:19:19.714Z,8.68
2019-02-24T10:20:29.430Z,8.9
2019-02-24T10:21:39.140Z,8.92
2019-02-24T10:22:48.918Z,9.09
2019-02-24T10:23:58.653Z,9.26
2019-02-24T10:25:10.806Z,9.36
2019-02-24T10:26:20.753Z,9.29
2019-02-24T10:27:30.695Z,9.4
2019-02-24T10:28:40.432Z,9.64
2019-02-24T10:29:50.431Z,10
2019-02-24T10:31:01.558Z,10.49
2019-02-24T10:32:11.634Z,10.82
2019-02-24T10:33:21.379Z,11.01
2019-02-24T10:34:31.377Z,11.05
2019-02-24T10:35:41.351Z,11.18
2019-02-24T10:36:51.304Z,11.55
2019-02-24T10:38:01.026Z,11.76
2019-02-24T10:39:10.989Z,11.91
2019-02-24T10:40:20.443Z,11.86
2019-02-24T10:41:30.152Z,12.03
2019-02-24T10:42:40.120Z,12.1
2019-02-24T10:43:50.090Z,12.18
2019-02-24T10:44:59.800Z,12.43
2019-02-24T10:46:11.285Z,12.9
2019-02-24T10:47:21.085Z,12.98
2019-02-24T10:48:30.805Z,13.17
2019-02-24T10:49:40.738Z,13.31
2019-02-24T10:50:50.695Z,13.31
2019-02-24T10:52:00.407Z,13.57
2019-02-24T10:53:10.370Z,13.79
2019-02-24T10:54:20.326Z,13.93
2019-02-24T10:55:29.777Z,13.87
2019-02-24T10:56:39.753Z,13.97
2019-02-24T10:57:49.463Z,13.85
2019-02-24T10:58:59.177Z,13.75
2019-02-24T11:00:08.143Z,13.6
2019-02-24T11:01:18.100Z,13.42
2019-02-24T11:02:36.865Z,13.65
2019-02-24T11:03:46.836Z,13.75
2019-02-24T11:04:56.779Z,13.91
2019-02-24T11:06:06.758Z,14.13
2019-02-24T11:07:16.718Z,14.16
2019-02-24T11:08:26.693Z,14.03
2019-02-24T11:09:36.394Z,13.97
2019-02-24T11:10:46.360Z,14.13
2019-02-24T11:11:56.077Z,14.3
2019-02-24T11:13:06.035Z,14.45
2019-02-24T11:14:15.990Z,14.37
2019-02-24T11:15:25.938Z,14.22
2019-02-24T11:16:37.056Z,14.28
2019-02-24T11:17:47.038Z,14.43
2019-02-24T11:18:56.806Z,14.4
2019-02-24T11:20:06.766Z,14.3
2019-02-24T11:21:16.483Z,14.38
2019-02-24T11:22:26.446Z,14.52
2019-02-24T11:23:36.170Z,14.61
2019-02-24T11:24:46.127Z,14.53
2019-02-24T11:25:56.090Z,14.49
2019-02-24T11:27:05.543Z,14.28
2019-02-24T11:28:15.245Z,14.33
2019-02-24T11:29:25.198Z,14.53
2019-02-24T11:30:35.196Z,14.67
2019-02-24T11:31:45.154Z,14.48
2019-02-24T11:32:54.647Z,14.61
2019-02-24T11:34:04.623Z,14.85
2019-02-24T11:35:14.604Z,14.74
2019-02-24T11:36:24.555Z,14.74
2019-02-24T11:37:34.894Z,14.78
2019-02-24T11:38:44.348Z,14.79
2019-02-24T11:39:54.045Z,15.07
2019-02-24T11:41:04.233Z,15.14
2019-02-24T11:42:13.947Z,15.11
2019-02-24T11:43:23.912Z,14.82
2019-02-24T11:44:33.374Z,14.99
2019-02-24T11:45:42.822Z,15.18
2019-02-24T11:46:52.826Z,15.08
2019-02-24T11:48:02.539Z,15.04
2019-02-24T11:49:12.244Z,14.99
2019-02-24T11:50:22.201Z,15.1
2019-02-24T11:51:31.655Z,15.18
2019-02-24T11:52:41.611Z,15.52
2019-02-24T11:53:51.567Z,16.05
2019-02-24T11:55:01.266Z,16.29
2019-02-24T11:56:11.242Z,16.4
2019-02-24T11:57:21.256Z,16.06
2019-02-24T11:58:31.217Z,16.26
2019-02-24T11:59:41.188Z,16.58
2019-02-24T12:00:51.156Z,16.62
2019-02-24T12:02:01.128Z,16.72
2019-02-24T12:03:10.833Z,16.65
2019-02-24T12:04:20.790Z,16.59
2019-02-24T12:05:30.485Z,16.21
2019-02-24T12:06:40.202Z,16.26
2019-02-24T12:07:49.906Z,16.32
2019-02-24T12:09:07.652Z,16.34
2019-02-24T12:10:17.365Z,16.25
2019-02-24T12:11:27.331Z,16.43
2019-02-24T12:12:37.043Z,16.54
2019-02-24T12:13:47.014Z,16.8
2019-02-24T12:14:56.982Z,16.91
2019-02-24T12:16:06.958Z,16.95
2019-02-24T12:17:16.936Z,17.04
2019-02-24T12:18:26.877Z,17.13
2019-02-24T12:19:36.337Z,17.22
2019-02-24T12:20:46.311Z,17.59
2019-02-24T12:21:56.273Z,17.84
2019-02-24T12:23:06.236Z,17.9
2019-02-24T12:24:16.190Z,17.97
2019-02-24T12:25:25.910Z,17.84
2019-02-24T12:26:37.619Z,17.94
2019-02-24T12:27:47.316Z,18
2019-02-24T12:28:57.029Z,18.12
2019-02-24T12:30:06.992Z,18.13
2019-02-24T12:31:16.201Z,18
2019-02-24T12:32:26.169Z,17.63
2019-02-24T12:33:36.146Z,17.52
2019-02-24T12:34:45.864Z,17.49
2019-02-24T12:35:55.834Z,17.53
2019-02-24T12:37:05.560Z,17.66
2019-02-24T12:38:15.284Z,17.8
2019-02-24T12:39:25.266Z,17.86
2019-02-24T12:40:35.227Z,17.88
2019-02-24T12:41:44.702Z,18.02
2019-02-24T12:42:54.709Z,18.21
2019-02-24T12:44:04.700Z,18.34
2019-02-24T12:45:14.675Z,18.46
2019-02-24T12:46:24.635Z,18.6
2019-02-24T12:47:34.629Z,18.85
2019-02-24T12:48:44.626Z,18.88
2019-02-24T12:50:02.649Z,18.89
2019-02-24T12:51:12.931Z,18.91
2019-02-24T12:52:23.194Z,18.68
2019-02-24T12:53:32.916Z,18.42
2019-02-24T12:54:42.618Z,18.08
2019-02-24T12:55:52.354Z,17.9
2019-02-24T12:57:02.086Z,17.78
2019-02-24T12:58:12.360Z,17.42
2019-02-24T12:59:22.341Z,17.12
2019-02-24T13:00:32.312Z,16.69
2019-02-24T13:01:44.194Z,16.47
2019-02-24T13:02:54.238Z,16.47
2019-02-24T13:04:03.983Z,16.76
2019-02-24T13:05:13.728Z,17.09
2019-02-24T13:06:23.693Z,17.54
2019-02-24T13:07:33.665Z,17.94
2019-02-24T13:08:43.626Z,18.18
2019-02-24T13:09:53.360Z,18.34
2019-02-24T13:11:03.081Z,18.28
2019-02-24T13:12:12.799Z,17.98
2019-02-24T13:13:22.526Z,18.12
2019-02-24T13:14:32.496Z,18.31
2019-02-24T13:15:42.468Z,18.34
2019-02-24T13:16:52.449Z,18.71
2019-02-24T13:18:02.407Z,19.05
2019-02-24T13:19:12.386Z,19.24
2019-02-24T13:20:22.094Z,19.15
2019-02-24T13:21:32.059Z,18.78
2019-02-24T13:22:42.013Z,18.94
2019-02-24T13:23:51.979Z,18.79
2019-02-24T13:25:01.958Z,18.78
2019-02-24T13:26:11.921Z,18.64
2019-02-24T13:27:21.909Z,18.73
2019-02-24T13:28:31.867Z,18.53
2019-02-24T13:29:41.846Z,18.46
2019-02-24T13:30:51.814Z,18.57
2019-02-24T13:32:01.785Z,18.53
2019-02-24T13:33:19.864Z,18.41
2019-02-24T13:34:30.776Z,18.42
2019-02-24T13:35:43.023Z,18.09
2019-02-24T13:36:52.740Z,18.31
2019-02-24T13:38:02.720Z,18.57
2019-02-24T13:39:12.674Z,18.42
2019-02-24T13:40:22.390Z,18.12
2019-02-24T13:41:32.376Z,17.91
2019-02-24T13:42:42.343Z,17.9
2019-02-24T13:43:51.573Z,17.98
2019-02-24T13:45:01.528Z,18.16
2019-02-24T13:46:11.226Z,18.24
2019-02-24T13:47:21.167Z,18.39
2019-02-24T13:48:30.898Z,18.36
2019-02-24T13:49:40.647Z,18.11
2019-02-24T13:50:50.747Z,18.12
2019-02-24T13:52:00.461Z,18
2019-02-24T13:53:10.199Z,18
2019-02-24T13:54:19.916Z,17.94
2019-02-24T13:55:29.600Z,17.91
2019-02-24T13:56:39.562Z,18.03
2019-02-24T13:57:50.679Z,18.12
2019-02-24T13:59:00.421Z,18.31
2019-02-24T14:00:10.162Z,18.11
2019-02-24T14:01:19.639Z,18.06
2019-02-24T14:02:29.609Z,18.21
2019-02-24T14:03:39.582Z,18.26
2019-02-24T14:04:49.546Z,18.21
2019-02-24T14:05:59.237Z,18.24
2019-02-24T14:07:09.227Z,18.15
2019-02-24T14:08:19.197Z,17.8
2019-02-24T14:09:29.161Z,17.47
2019-02-24T14:10:38.611Z,17.65
2019-02-24T14:11:48.585Z,17.66
2019-02-24T14:12:58.982Z,17.32
2019-02-24T14:14:09.940Z,17.09
2019-02-24T14:15:19.982Z,17.42
2019-02-24T14:16:29.959Z,17.38
2019-02-24T14:17:39.423Z,16.94
2019-02-24T14:18:50.026Z,16.98
2019-02-24T14:19:59.990Z,17.07
2019-02-24T14:21:10.019Z,16.95
2019-02-24T14:22:19.746Z,16.92
2019-02-24T14:23:29.727Z,16.91
2019-02-24T14:24:39.183Z,16.77
2019-02-24T14:25:49.151Z,16.77
2019-02-24T14:26:58.615Z,16.61
2019-02-24T14:28:08.083Z,16.62
2019-02-24T14:29:17.588Z,16.5
2019-02-24T14:30:27.321Z,16.55
2019-02-24T14:31:37.287Z,16.64
2019-02-24T14:32:49.102Z,16.69
2019-02-24T14:33:59.075Z,16.77
2019-02-24T14:35:09.026Z,16.69
2019-02-24T14:36:18.484Z,16.79
2019-02-24T14:37:28.428Z,16.97
2019-02-24T14:38:38.385Z,16.92
2019-02-24T14:39:48.371Z,16.99
2019-02-24T14:40:58.109Z,16.76
2019-02-24T14:42:08.685Z,16.86
2019-02-24T14:43:18.401Z,16.98
2019-02-24T14:44:28.218Z,17.05
2019-02-24T14:45:38.009Z,16.84
2019-02-24T14:46:57.257Z,16.97
2019-02-24T14:48:07.300Z,16.98
2019-02-24T14:49:17.271Z,17.12
2019-02-24T14:50:26.998Z,17.05
2019-02-24T14:51:36.970Z,16.86
2019-02-24T14:52:46.941Z,16.82
2019-02-24T14:53:56.935Z,16.91
2019-02-24T14:55:06.901Z,16.89
2019-02-24T14:56:16.607Z,16.58
2019-02-24T14:57:26.312Z,16.65
2019-02-24T14:58:36.042Z,16.69
2019-02-24T14:59:45.756Z,16.54
2019-02-24T15:00:55.707Z,16.46
2019-02-24T15:02:06.119Z,16.49
2019-02-24T15:03:16.086Z,16.58
2019-02-24T15:04:25.803Z,16.47
2019-02-24T15:05:35.517Z,16.28
2019-02-24T15:06:45.523Z,16.29
2019-02-24T15:07:55.493Z,16.41
2019-02-24T15:09:05.459Z,16.31
2019-02-24T15:10:15.207Z,16.21